METAR Data
IDs: Format: Raw Decoded Include TAF

Data at: 0915 UTC 13 Aug 2022

ETEB 130856Z AUTO 06006KT 9999 CLR 23/11 A3005 RMK AO2 SLP171 T02330107 53001 $